createdAt,value
2022-12-31T00:02:13.881Z,6.13
2022-12-31T00:04:42.152Z,10.17
2022-12-31T00:07:10.270Z,12.30
2022-12-31T00:09:38.571Z,9.67
2022-12-31T00:12:08.433Z,16.40
2022-12-31T00:14:36.677Z,10.60
2022-12-31T00:17:04.949Z,8.40
2022-12-31T00:19:33.199Z,10.63
2022-12-31T00:22:01.406Z,16.70
2022-12-31T00:24:30.952Z,13.47
2022-12-31T00:26:59.260Z,11.37
2022-12-31T00:29:28.766Z,8.07
2022-12-31T00:31:57.012Z,14.07
2022-12-31T00:34:25.640Z,12.13
2022-12-31T00:36:54.583Z,11.80
2022-12-31T00:39:22.746Z,16.80
2022-12-31T00:41:50.936Z,11.13
2022-12-31T00:44:19.188Z,11.40
2022-12-31T00:46:48.768Z,9.97
2022-12-31T00:49:16.972Z,13.37
2022-12-31T00:51:46.617Z,11.80
2022-12-31T00:54:14.814Z,12.83
2022-12-31T00:56:43.152Z,14.77
2022-12-31T00:59:11.359Z,11.30
2022-12-31T01:01:40.481Z,13.53
2022-12-31T01:04:11.979Z,11.60
2022-12-31T01:06:40.171Z,12.17
2022-12-31T01:09:08.558Z,10.47
2022-12-31T01:11:36.725Z,12.93
2022-12-31T01:14:06.171Z,8.70
2022-12-31T01:16:36.137Z,11.90
2022-12-31T01:19:05.323Z,11.63
2022-12-31T01:21:35.797Z,12.30
2022-12-31T01:24:03.937Z,6.47
2022-12-31T01:26:32.224Z,8.17
2022-12-31T01:29:00.385Z,6.67
2022-12-31T01:31:28.668Z,6.73
2022-12-31T01:33:57.134Z,8.23
2022-12-31T01:36:26.601Z,6.67
2022-12-31T01:38:56.681Z,8.53
2022-12-31T01:41:26.287Z,8.80
2022-12-31T01:43:55.262Z,6.73
2022-12-31T01:46:27.281Z,8.63
2022-12-31T01:48:57.662Z,9.37
2022-12-31T01:51:26.443Z,10.73
2022-12-31T01:53:56.249Z,6.93
2022-12-31T01:56:24.812Z,10.80
2022-12-31T01:58:54.601Z,11.03
2022-12-31T02:01:26.369Z,11.53
2022-12-31T02:03:54.937Z,9.33
2022-12-31T02:06:24.546Z,8.20
2022-12-31T02:08:52.849Z,11.57
2022-12-31T02:11:24.844Z,11.80
2022-12-31T02:13:58.298Z,12.90
2022-12-31T02:16:31.180Z,10.57
2022-12-31T02:19:01.486Z,11.20
2022-12-31T02:21:45.277Z,10.13
2022-12-31T02:24:40.416Z,11.20
2022-12-31T02:27:12.148Z,12.27
2022-12-31T02:29:57.992Z,13.13
2022-12-31T02:32:31.985Z,9.33
2022-12-31T02:35:02.685Z,10.20
2022-12-31T02:37:32.014Z,11.23
2022-12-31T02:40:00.658Z,8.00
2022-12-31T02:42:28.816Z,14.57
2022-12-31T02:44:56.969Z,9.70
2022-12-31T02:47:35.300Z,11.30
2022-12-31T02:50:19.466Z,12.20
2022-12-31T02:52:52.402Z,6.90
2022-12-31T02:55:26.177Z,7.70
2022-12-31T02:57:56.792Z,5.50
2022-12-31T03:00:39.137Z,7.23
2022-12-31T03:03:09.647Z,9.47
2022-12-31T03:05:40.632Z,6.97
2022-12-31T03:08:08.858Z,5.80
2022-12-31T03:10:37.119Z,7.93
2022-12-31T03:13:04.609Z,10.20
2022-12-31T03:15:33.831Z,10.20
2022-12-31T03:18:02.968Z,7.60
2022-12-31T03:20:52.079Z,8.60
2022-12-31T03:23:21.874Z,7.03
2022-12-31T03:25:49.095Z,3.93
2022-12-31T03:28:18.144Z,6.50
2022-12-31T03:30:47.288Z,6.63
2022-12-31T03:33:15.490Z,6.87
2022-12-31T03:35:46.163Z,5.13
2022-12-31T03:38:14.520Z,8.70
2022-12-31T03:40:44.560Z,8.97
2022-12-31T03:43:12.881Z,8.57
2022-12-31T03:45:41.419Z,8.53
2022-12-31T03:48:10.562Z,6.47
2022-12-31T03:50:38.981Z,9.60
2022-12-31T03:53:08.517Z,6.83
2022-12-31T03:55:36.951Z,6.57
2022-12-31T03:58:05.469Z,7.20
2022-12-31T04:00:33.801Z,8.37
2022-12-31T04:03:02.043Z,7.00
2022-12-31T04:05:30.219Z,9.27
2022-12-31T04:07:58.392Z,8.23
2022-12-31T04:10:27.935Z,8.23
2022-12-31T04:12:56.122Z,6.93
2022-12-31T04:15:24.235Z,4.63
2022-12-31T04:17:52.387Z,5.87
2022-12-31T04:20:20.531Z,6.47
2022-12-31T04:22:48.707Z,10.03
2022-12-31T04:25:16.862Z,6.97
2022-12-31T04:27:46.413Z,9.43
2022-12-31T04:30:15.424Z,7.23
2022-12-31T04:32:43.659Z,8.10
2022-12-31T04:35:12.184Z,6.00
2022-12-31T04:37:40.378Z,5.47
2022-12-31T04:40:09.915Z,7.07
2022-12-31T04:42:38.302Z,9.67
2022-12-31T04:45:08.709Z,7.17
2022-12-31T04:47:36.878Z,10.13
2022-12-31T04:50:05.278Z,9.90
2022-12-31T04:52:37.153Z,10.97
2022-12-31T04:55:10.550Z,11.47
2022-12-31T04:57:38.680Z,11.23
2022-12-31T05:00:09.108Z,12.00
2022-12-31T05:02:37.514Z,10.53
2022-12-31T05:05:06.128Z,9.03
2022-12-31T05:07:34.297Z,10.53
2022-12-31T05:10:02.497Z,9.20
2022-12-31T05:12:30.723Z,8.37
2022-12-31T05:14:58.883Z,8.67
2022-12-31T05:17:28.388Z,8.50
2022-12-31T05:19:56.535Z,8.23
2022-12-31T05:22:31.057Z,7.60
2022-12-31T05:24:59.879Z,6.67
2022-12-31T05:27:30.944Z,6.27
2022-12-31T05:29:59.092Z,5.63
2022-12-31T05:32:28.823Z,6.13
2022-12-31T05:34:57.014Z,5.37
2022-12-31T05:37:25.305Z,5.20
2022-12-31T05:39:53.626Z,4.33
2022-12-31T05:42:21.984Z,3.83
2022-12-31T05:44:50.193Z,4.10
2022-12-31T05:47:18.700Z,3.53
2022-12-31T05:49:48.175Z,3.50
2022-12-31T05:52:16.414Z,3.97
2022-12-31T05:54:44.608Z,4.07
2022-12-31T05:57:12.742Z,4.47
2022-12-31T05:59:40.904Z,4.70
2022-12-31T06:02:09.034Z,4.20
2022-12-31T06:04:37.178Z,4.63
2022-12-31T06:07:06.693Z,4.53
2022-12-31T06:09:34.845Z,4.60
2022-12-31T06:12:02.985Z,5.40
2022-12-31T06:14:31.169Z,5.20
2022-12-31T06:16:59.562Z,4.93
2022-12-31T06:19:27.788Z,5.33
2022-12-31T06:21:55.907Z,5.90
2022-12-31T06:24:25.428Z,5.53
2022-12-31T06:26:53.584Z,6.03
2022-12-31T06:29:21.729Z,7.03
2022-12-31T06:31:49.931Z,7.60
2022-12-31T06:34:18.209Z,6.97
2022-12-31T06:36:46.383Z,8.33
2022-12-31T06:39:14.501Z,8.00
2022-12-31T06:41:44.038Z,7.53
2022-12-31T06:44:12.172Z,7.23
2022-12-31T06:46:40.381Z,7.73
2022-12-31T06:49:08.597Z,7.80
2022-12-31T06:51:36.827Z,6.47
2022-12-31T06:54:05.025Z,7.33
2022-12-31T06:56:34.780Z,7.87
2022-12-31T06:59:05.434Z,6.60
2022-12-31T07:01:38.789Z,6.53
2022-12-31T07:04:13.907Z,6.00
2022-12-31T07:06:45.182Z,6.37
2022-12-31T07:09:17.084Z,6.00
2022-12-31T07:11:48.577Z,6.40
2022-12-31T07:14:25.245Z,6.87
2022-12-31T07:16:58.047Z,7.60
2022-12-31T07:19:30.725Z,6.00
2022-12-31T07:21:59.974Z,6.17
2022-12-31T07:24:28.605Z,6.37
2022-12-31T07:27:06.925Z,5.20
2022-12-31T07:29:43.992Z,6.97
2022-12-31T07:32:18.952Z,7.67
2022-12-31T07:34:53.071Z,7.53
2022-12-31T07:37:27.284Z,7.03
2022-12-31T07:40:01.703Z,10.73
2022-12-31T07:42:34.728Z,6.40
2022-12-31T07:45:09.424Z,7.13
2022-12-31T07:47:37.862Z,7.10
2022-12-31T07:50:06.484Z,7.37
2022-12-31T07:52:34.992Z,7.70
2022-12-31T07:55:03.097Z,8.23
2022-12-31T07:57:35.576Z,8.30
2022-12-31T08:00:08.347Z,8.33
2022-12-31T08:02:47.647Z,7.13
2022-12-31T08:05:20.171Z,9.87
2022-12-31T08:07:54.592Z,9.73
2022-12-31T08:10:25.568Z,7.17
2022-12-31T08:12:56.275Z,7.47
2022-12-31T08:15:30.362Z,6.93
2022-12-31T08:17:59.387Z,7.53
2022-12-31T08:20:28.062Z,8.07
2022-12-31T08:23:07.935Z,12.93
2022-12-31T08:25:39.821Z,9.20
2022-12-31T08:28:12.220Z,12.03
2022-12-31T08:30:45.862Z,7.97
2022-12-31T08:33:15.951Z,12.67
2022-12-31T08:35:50.882Z,8.93
2022-12-31T08:38:25.491Z,10.93
2022-12-31T08:41:01.100Z,8.10
2022-12-31T08:43:34.545Z,10.00
2022-12-31T08:46:04.672Z,10.77
2022-12-31T08:48:34.754Z,9.57
2022-12-31T08:51:03.053Z,14.43
2022-12-31T08:53:31.987Z,11.10
2022-12-31T08:56:03.373Z,12.80
2022-12-31T08:58:38.206Z,13.10
2022-12-31T09:01:08.844Z,12.70
2022-12-31T09:03:45.804Z,11.63
2022-12-31T09:06:19.322Z,10.47
2022-12-31T09:08:52.837Z,10.60
2022-12-31T09:11:24.986Z,11.67
2022-12-31T09:14:08.058Z,8.50
2022-12-31T09:16:41.238Z,12.17
2022-12-31T09:19:10.672Z,10.93
2022-12-31T09:21:39.174Z,6.63
2022-12-31T09:24:09.692Z,15.23
2022-12-31T09:26:43.923Z,10.13
2022-12-31T09:29:16.346Z,13.73
2022-12-31T09:31:51.370Z,10.83
2022-12-31T09:34:25.253Z,9.37
2022-12-31T09:36:58.588Z,14.00
2022-12-31T09:39:33.092Z,9.40
2022-12-31T09:42:13.862Z,10.27
2022-12-31T09:44:55.042Z,10.20
2022-12-31T09:47:37.104Z,10.27
2022-12-31T09:50:22.878Z,8.97
2022-12-31T09:53:03.252Z,10.90
2022-12-31T09:55:37.367Z,8.77
2022-12-31T09:58:14.024Z,10.00
2022-12-31T10:00:44.968Z,9.40
2022-12-31T10:03:22.858Z,8.67
2022-12-31T10:05:56.351Z,9.03
2022-12-31T10:08:34.017Z,10.30
2022-12-31T10:11:05.049Z,9.40
2022-12-31T10:13:49.598Z,10.20
2022-12-31T10:16:33.338Z,8.30
2022-12-31T10:19:20.220Z,10.67
2022-12-31T10:21:55.892Z,8.00
2022-12-31T10:24:38.910Z,10.53
2022-12-31T10:27:16.420Z,8.57
2022-12-31T10:29:47.931Z,11.30
2022-12-31T10:32:18.232Z,8.23
2022-12-31T10:34:55.017Z,7.93
2022-12-31T10:37:25.895Z,8.37
2022-12-31T10:39:57.478Z,7.40
2022-12-31T10:42:40.519Z,8.13
2022-12-31T10:45:30.950Z,9.77
2022-12-31T10:48:17.784Z,8.13
2022-12-31T10:51:15.244Z,8.00
2022-12-31T10:53:55.693Z,9.63
2022-12-31T10:56:51.586Z,8.93
2022-12-31T10:59:35.043Z,7.87
2022-12-31T11:02:11.128Z,7.17
2022-12-31T11:05:00.367Z,6.70
2022-12-31T11:07:37.230Z,6.90
2022-12-31T11:10:26.218Z,7.20
2022-12-31T11:13:04.400Z,7.03
2022-12-31T11:15:42.906Z,7.70
2022-12-31T11:18:19.255Z,7.43
2022-12-31T11:20:56.872Z,7.90
2022-12-31T11:23:33.528Z,9.27
2022-12-31T11:26:06.845Z,9.57
2022-12-31T11:28:42.444Z,9.17
2022-12-31T11:31:19.627Z,10.97
2022-12-31T11:33:54.341Z,10.87
2022-12-31T11:36:26.405Z,10.40
2022-12-31T11:38:55.557Z,11.47
2022-12-31T11:41:30.053Z,18.30
2022-12-31T11:44:04.240Z,13.90
2022-12-31T11:46:41.014Z,12.57
2022-12-31T11:49:16.305Z,11.73
2022-12-31T11:51:52.653Z,12.83
2022-12-31T11:54:36.556Z,11.73
2022-12-31T11:57:08.568Z,12.40
2022-12-31T11:59:38.115Z,12.30
2022-12-31T12:02:14.655Z,11.87
2022-12-31T12:04:43.089Z,13.30
2022-12-31T12:07:14.436Z,13.07
2022-12-31T12:09:43.065Z,15.80
2022-12-31T12:12:11.246Z,12.60
2022-12-31T12:14:41.316Z,12.17
2022-12-31T12:17:10.226Z,13.77
2022-12-31T12:19:44.092Z,11.97
2022-12-31T12:22:12.892Z,14.27
2022-12-31T12:24:41.292Z,14.20
2022-12-31T12:27:21.966Z,14.10
2022-12-31T12:29:51.498Z,15.97
2022-12-31T12:32:20.819Z,15.70
2022-12-31T12:34:50.148Z,15.07
2022-12-31T12:37:29.371Z,13.47
2022-12-31T12:39:58.590Z,12.50
2022-12-31T12:42:27.023Z,12.80
2022-12-31T12:45:08.051Z,16.37
2022-12-31T12:47:36.523Z,12.07
2022-12-31T12:50:04.890Z,14.17
2022-12-31T12:52:38.944Z,12.40
2022-12-31T12:55:14.172Z,11.73
2022-12-31T12:57:46.214Z,12.20
2022-12-31T13:00:20.128Z,14.00
2022-12-31T13:03:06.001Z,12.27
2022-12-31T13:05:40.063Z,12.27
2022-12-31T13:08:13.926Z,12.13
2022-12-31T13:10:52.940Z,11.10
2022-12-31T13:13:26.013Z,11.93
2022-12-31T13:15:58.683Z,12.03
2022-12-31T13:18:34.949Z,12.73
2022-12-31T13:21:05.029Z,10.97
2022-12-31T13:23:39.819Z,11.80
2022-12-31T13:26:11.940Z,14.07
2022-12-31T13:28:42.788Z,12.30
2022-12-31T13:31:13.758Z,12.53
2022-12-31T13:33:43.301Z,12.50
2022-12-31T13:36:15.411Z,10.83
2022-12-31T13:38:46.253Z,11.10
2022-12-31T13:41:16.688Z,11.03
2022-12-31T13:43:51.025Z,11.00
2022-12-31T13:46:24.902Z,11.03
2022-12-31T13:48:55.177Z,11.20
2022-12-31T13:51:29.055Z,11.50
2022-12-31T13:54:01.789Z,11.87
2022-12-31T13:56:32.541Z,11.30
2022-12-31T13:59:05.189Z,12.07
2022-12-31T14:01:37.234Z,11.90
2022-12-31T14:04:07.952Z,13.67
2022-12-31T14:06:38.260Z,10.33
2022-12-31T14:09:08.358Z,160.10
2022-12-31T14:11:48.350Z,23.33
2022-12-31T14:14:19.679Z,14.67
2022-12-31T14:16:51.367Z,10.23
2022-12-31T14:19:30.709Z,10.37
2022-12-31T14:22:02.657Z,10.10
2022-12-31T14:24:36.225Z,10.90
2022-12-31T14:27:07.210Z,10.27
2022-12-31T14:29:37.194Z,9.13
2022-12-31T14:32:18.362Z,10.33
2022-12-31T14:34:51.579Z,12.57
2022-12-31T14:37:24.613Z,12.57
2022-12-31T14:39:56.634Z,10.57
2022-12-31T14:42:31.375Z,11.67
2022-12-31T14:45:09.138Z,9.23
2022-12-31T14:47:42.888Z,13.57
2022-12-31T14:50:13.055Z,14.93
2022-12-31T14:52:50.591Z,16.37
2022-12-31T14:55:26.633Z,12.60
2022-12-31T14:58:26.460Z,12.97
2022-12-31T15:00:53.020Z,13.17
2022-12-31T15:03:26.679Z,12.60
2022-12-31T15:05:56.290Z,15.37
2022-12-31T15:08:31.060Z,13.43
2022-12-31T15:11:12.802Z,13.13
2022-12-31T15:13:47.599Z,26.60
2022-12-31T15:16:23.128Z,19.97
2022-12-31T15:19:02.945Z,13.87
2022-12-31T15:21:38.381Z,10.17
2022-12-31T15:24:14.625Z,10.97
2022-12-31T15:26:49.003Z,14.70
2022-12-31T15:29:25.494Z,16.23
2022-12-31T15:31:54.365Z,22.43
2022-12-31T15:34:29.500Z,17.20
2022-12-31T15:36:58.884Z,19.77
2022-12-31T15:39:41.985Z,21.23
2022-12-31T15:42:39.230Z,22.63
2022-12-31T15:45:13.536Z,28.53
2022-12-31T15:47:43.173Z,35.83
2022-12-31T15:50:16.865Z,46.00
2022-12-31T15:52:47.905Z,60.67
2022-12-31T15:55:21.691Z,74.37
2022-12-31T15:57:51.108Z,83.30
2022-12-31T16:00:20.537Z,94.07
2022-12-31T16:02:49.245Z,107.43
2022-12-31T16:05:22.971Z,102.40
2022-12-31T16:07:53.767Z,101.27
2022-12-31T16:10:24.184Z,99.90
2022-12-31T16:12:52.497Z,113.70
2022-12-31T16:15:22.810Z,109.13
2022-12-31T16:18:02.774Z,107.20
2022-12-31T16:20:32.989Z,120.80
2022-12-31T16:23:02.956Z,125.40
2022-12-31T16:25:33.064Z,122.60
2022-12-31T16:28:03.342Z,110.67
2022-12-31T16:30:32.388Z,105.63
2022-12-31T16:33:01.937Z,112.60
2022-12-31T16:35:32.158Z,95.73
2022-12-31T16:38:13.913Z,87.93
2022-12-31T16:40:42.621Z,75.20
2022-12-31T16:43:25.947Z,67.67
2022-12-31T16:45:54.400Z,69.10
2022-12-31T16:48:22.725Z,64.23
2022-12-31T16:50:54.220Z,65.67
2022-12-31T16:53:24.846Z,59.77
2022-12-31T16:55:54.604Z,43.83
2022-12-31T16:58:25.569Z,49.43
2022-12-31T17:00:54.258Z,36.17
2022-12-31T17:03:23.841Z,36.07
2022-12-31T17:05:57.862Z,28.70
2022-12-31T17:08:27.441Z,31.63
2022-12-31T17:10:56.431Z,23.13
2022-12-31T17:13:28.331Z,18.93
2022-12-31T17:15:58.262Z,15.90
2022-12-31T17:18:28.053Z,13.13
2022-12-31T17:21:06.191Z,11.83
2022-12-31T17:23:35.695Z,14.93
2022-12-31T17:26:07.485Z,13.23
2022-12-31T17:28:40.254Z,10.47
2022-12-31T17:31:23.349Z,9.97
2022-12-31T17:33:54.207Z,9.43
2022-12-31T17:36:24.924Z,11.57
2022-12-31T17:38:53.153Z,11.30
2022-12-31T17:41:26.356Z,10.57
2022-12-31T17:43:58.267Z,9.50
2022-12-31T17:46:26.883Z,10.47
2022-12-31T17:48:58.020Z,8.17
2022-12-31T17:51:27.606Z,8.50
2022-12-31T17:53:55.802Z,8.03
2022-12-31T17:56:24.118Z,10.13
2022-12-31T17:58:53.215Z,6.57
2022-12-31T18:01:22.905Z,9.03
2022-12-31T18:03:51.142Z,10.17
2022-12-31T18:06:20.028Z,10.90
2022-12-31T18:08:49.650Z,11.37
2022-12-31T18:11:19.238Z,10.50
2022-12-31T18:13:47.506Z,9.03
2022-12-31T18:16:16.015Z,11.43
2022-12-31T18:18:45.299Z,8.20
2022-12-31T18:21:17.709Z,8.17
2022-12-31T18:23:47.023Z,7.43
2022-12-31T18:26:17.200Z,9.50
2022-12-31T18:28:45.459Z,11.67
2022-12-31T18:31:15.575Z,9.60
2022-12-31T18:33:43.868Z,8.57
2022-12-31T18:36:13.620Z,9.30
2022-12-31T18:38:42.196Z,9.33
2022-12-31T18:41:15.972Z,10.27
2022-12-31T18:43:45.641Z,8.23
2022-12-31T18:46:14.855Z,8.00
2022-12-31T18:48:43.031Z,9.47
2022-12-31T18:51:13.842Z,7.67
2022-12-31T18:53:42.063Z,8.43
2022-12-31T18:56:12.631Z,7.13
2022-12-31T18:58:40.903Z,11.87
2022-12-31T19:01:24.173Z,11.93
2022-12-31T19:03:52.439Z,10.77
2022-12-31T19:06:20.586Z,11.43
2022-12-31T19:08:48.828Z,9.53
2022-12-31T19:11:17.646Z,8.40
2022-12-31T19:13:45.866Z,9.03
2022-12-31T19:16:15.429Z,8.70
2022-12-31T19:18:43.835Z,8.93
2022-12-31T19:21:17.250Z,14.10
2022-12-31T19:23:45.537Z,14.83
2022-12-31T19:26:17.265Z,13.10
2022-12-31T19:28:45.955Z,9.10
2022-12-31T19:31:15.738Z,10.87
2022-12-31T19:33:43.956Z,8.97
2022-12-31T19:36:15.540Z,11.23
2022-12-31T19:38:44.112Z,11.13
2022-12-31T19:41:16.589Z,15.43
2022-12-31T19:43:44.945Z,13.23
2022-12-31T19:46:14.427Z,11.57
2022-12-31T19:48:44.316Z,13.57
2022-12-31T19:51:13.466Z,11.57
2022-12-31T19:53:41.679Z,16.83
2022-12-31T19:56:12.840Z,13.77
2022-12-31T19:58:41.041Z,12.03
2022-12-31T20:01:10.939Z,10.63
2022-12-31T20:03:39.222Z,13.33
2022-12-31T20:06:09.802Z,11.43
2022-12-31T20:08:38.881Z,11.83
2022-12-31T20:11:10.503Z,13.73
2022-12-31T20:13:39.187Z,14.80
2022-12-31T20:16:08.437Z,12.70
2022-12-31T20:18:38.085Z,12.50
2022-12-31T20:21:06.541Z,13.37
2022-12-31T20:23:36.263Z,12.93
2022-12-31T20:26:04.425Z,14.43
2022-12-31T20:28:32.618Z,13.57
2022-12-31T20:31:00.950Z,8.43
2022-12-31T20:33:31.696Z,14.37
2022-12-31T20:36:03.018Z,13.33
2022-12-31T20:38:31.164Z,12.07
2022-12-31T20:41:05.280Z,11.03
2022-12-31T20:43:33.687Z,12.17
2022-12-31T20:46:01.943Z,14.93
2022-12-31T20:48:30.157Z,12.57
2022-12-31T20:50:58.548Z,15.87
2022-12-31T20:53:26.733Z,12.97
2022-12-31T20:55:54.867Z,11.80
2022-12-31T20:58:24.386Z,14.67
2022-12-31T21:00:53.348Z,14.37
2022-12-31T21:04:02.440Z,12.83
2022-12-31T21:06:09.982Z,13.20
2022-12-31T21:08:38.505Z,15.83
2022-12-31T21:11:27.562Z,12.27
2022-12-31T21:13:56.859Z,11.80
2022-12-31T21:16:25.493Z,15.20
2022-12-31T21:18:54.165Z,16.23
2022-12-31T21:21:22.403Z,9.73
2022-12-31T21:23:50.623Z,13.70
2022-12-31T21:26:18.877Z,11.17
2022-12-31T21:28:47.189Z,15.53
2022-12-31T21:31:16.954Z,10.17
2022-12-31T21:33:46.028Z,10.37
2022-12-31T21:36:14.537Z,9.33
2022-12-31T21:38:42.663Z,14.67
2022-12-31T21:41:34.155Z,12.70
2022-12-31T21:44:03.333Z,14.50
2022-12-31T21:46:32.916Z,14.83
2022-12-31T21:49:01.525Z,13.60
2022-12-31T21:51:30.080Z,12.07
2022-12-31T21:53:58.660Z,15.90
2022-12-31T21:56:26.147Z,12.23
2022-12-31T21:59:09.295Z,13.50
2022-12-31T22:01:56.622Z,14.40
2022-12-31T22:05:00.398Z,13.63
2022-12-31T22:07:13.023Z,13.87
2022-12-31T22:09:41.155Z,13.73
2022-12-31T22:12:09.467Z,13.27
2022-12-31T22:14:37.664Z,11.77
2022-12-31T22:17:07.136Z,10.83
2022-12-31T22:19:48.709Z,8.47
2022-12-31T22:22:23.455Z,8.77
2022-12-31T22:24:51.649Z,8.53
2022-12-31T22:27:28.338Z,7.90
2022-12-31T22:29:57.842Z,9.90
2022-12-31T22:32:27.371Z,9.37
2022-12-31T22:34:55.583Z,13.33
2022-12-31T22:37:55.102Z,12.17
2022-12-31T22:40:12.404Z,11.23
2022-12-31T22:42:40.590Z,8.90
2022-12-31T22:45:09.221Z,9.50
2022-12-31T22:47:38.777Z,15.20
2022-12-31T22:50:07.526Z,13.13
2022-12-31T22:52:35.691Z,13.03
2022-12-31T22:55:03.810Z,10.47
2022-12-31T22:57:31.958Z,17.30
2022-12-31T23:00:00.127Z,13.97
2022-12-31T23:02:28.356Z,15.53
2022-12-31T23:05:15.868Z,20.37
2022-12-31T23:07:44.580Z,40.23
2022-12-31T23:10:30.551Z,55.37
2022-12-31T23:13:20.052Z,59.77
2022-12-31T23:16:05.990Z,49.07
2022-12-31T23:18:51.722Z,50.00
2022-12-31T23:21:38.748Z,53.97
2022-12-31T23:24:13.483Z,60.87
2022-12-31T23:26:46.084Z,60.83
2022-12-31T23:29:14.033Z,49.67
2022-12-31T23:31:41.864Z,47.87
2022-12-31T23:34:10.417Z,59.07
2022-12-31T23:36:39.629Z,70.80
2022-12-31T23:39:07.505Z,53.30
2022-12-31T23:41:35.442Z,65.97
2022-12-31T23:44:04.304Z,60.33
2022-12-31T23:46:32.154Z,64.00
2022-12-31T23:49:00.129Z,59.67
2022-12-31T23:51:28.032Z,62.43
2022-12-31T23:53:57.178Z,87.87
2022-12-31T23:56:25.063Z,110.50
2022-12-31T23:58:55.426Z,53.20
